createdAt,value
2023-04-19T00:00:03.691Z,8.70
2023-04-19T00:02:31.400Z,8.70
2023-04-19T00:04:58.449Z,8.70
2023-04-19T00:07:25.422Z,8.70
2023-04-19T00:09:52.165Z,8.70
2023-04-19T00:12:19.008Z,8.70
2023-04-19T00:14:45.771Z,8.70
2023-04-19T00:17:12.589Z,8.70
2023-04-19T00:19:39.393Z,8.70
2023-04-19T00:22:06.320Z,8.70
2023-04-19T00:24:33.139Z,8.70
2023-04-19T00:27:00.515Z,8.70
2023-04-19T00:29:27.329Z,8.70
2023-04-19T00:31:54.109Z,8.60
2023-04-19T00:34:20.923Z,8.60
2023-04-19T00:36:47.684Z,8.60
2023-04-19T00:39:15.368Z,8.60
2023-04-19T00:41:42.125Z,8.60
2023-04-19T00:44:08.907Z,8.60
2023-04-19T00:46:37.749Z,8.60
2023-04-19T00:49:04.946Z,8.60
2023-04-19T00:51:31.773Z,8.60
2023-04-19T00:53:58.877Z,8.50
2023-04-19T00:56:27.414Z,8.50
2023-04-19T00:58:55.351Z,8.50
2023-04-19T01:01:22.673Z,8.50
2023-04-19T01:03:49.610Z,8.50
2023-04-19T01:06:16.473Z,8.50
2023-04-19T01:08:43.318Z,8.50
2023-04-19T01:11:10.201Z,8.50
2023-04-19T01:13:37.009Z,8.40
2023-04-19T01:16:04.149Z,8.50
2023-04-19T01:18:37.401Z,8.50
2023-04-19T01:21:04.354Z,8.40
2023-04-19T01:23:31.321Z,8.50
2023-04-19T01:25:58.105Z,8.50
2023-04-19T01:28:24.863Z,8.50
2023-04-19T01:30:53.820Z,8.50
2023-04-19T01:33:21.525Z,8.50
2023-04-19T01:35:49.054Z,8.50
2023-04-19T01:38:16.609Z,8.40
2023-04-19T01:40:44.016Z,8.50
2023-04-19T01:43:14.002Z,8.50
2023-04-19T01:45:40.983Z,8.50
2023-04-19T01:48:08.044Z,8.50
2023-04-19T01:50:35.069Z,8.40
2023-04-19T01:53:01.953Z,8.40
2023-04-19T01:55:29.229Z,8.40
2023-04-19T01:57:56.199Z,8.40
2023-04-19T02:00:23.123Z,8.40
2023-04-19T02:02:50.343Z,8.40
2023-04-19T02:05:17.244Z,8.40
2023-04-19T02:07:43.999Z,8.40
2023-04-19T02:10:13.891Z,8.40
2023-04-19T02:12:41.265Z,8.40
2023-04-19T02:15:08.580Z,8.40
2023-04-19T02:17:36.370Z,8.40
2023-04-19T02:20:04.605Z,8.40
2023-04-19T02:22:31.444Z,8.40
2023-04-19T02:24:58.210Z,8.40
2023-04-19T02:27:24.942Z,8.30
2023-04-19T02:29:51.683Z,8.30
2023-04-19T02:32:18.451Z,8.30
2023-04-19T02:34:45.229Z,8.30
2023-04-19T02:37:12.015Z,8.30
2023-04-19T02:39:38.942Z,8.30
2023-04-19T02:42:06.051Z,8.30
2023-04-19T02:44:32.776Z,8.30
2023-04-19T02:46:59.555Z,8.30
2023-04-19T02:49:26.375Z,8.20
2023-04-19T02:51:53.149Z,8.20
2023-04-19T02:54:19.908Z,8.30
2023-04-19T02:56:46.658Z,8.20
2023-04-19T02:59:13.415Z,8.20
2023-04-19T03:01:40.284Z,8.20
2023-04-19T03:04:07.117Z,8.20
2023-04-19T03:06:34.043Z,8.30
2023-04-19T03:09:00.863Z,8.30
2023-04-19T03:11:27.629Z,8.30
2023-04-19T03:13:54.478Z,8.30
2023-04-19T03:16:21.246Z,8.20
2023-04-19T03:18:49.486Z,8.30
2023-04-19T03:21:16.477Z,8.30
2023-04-19T03:23:43.221Z,8.30
2023-04-19T03:26:10.003Z,8.30
2023-04-19T03:28:36.868Z,8.30
2023-04-19T03:31:03.698Z,8.30
2023-04-19T03:33:30.512Z,8.30
2023-04-19T03:35:57.637Z,8.30
2023-04-19T03:38:24.401Z,8.30
2023-04-19T03:40:51.280Z,8.30
2023-04-19T03:43:18.718Z,8.30
2023-04-19T03:45:45.472Z,8.30
2023-04-19T03:48:12.298Z,8.30
2023-04-19T03:50:39.130Z,8.20
2023-04-19T03:53:06.126Z,8.20
2023-04-19T03:55:32.889Z,8.20
2023-04-19T03:57:59.652Z,8.20
2023-04-19T04:00:27.499Z,8.20
2023-04-19T04:02:54.600Z,8.20
2023-04-19T04:05:21.829Z,8.10
2023-04-19T04:07:48.567Z,8.10
2023-04-19T04:10:15.383Z,8.10
2023-04-19T04:12:42.167Z,8.10
2023-04-19T04:15:10.003Z,8.10
2023-04-19T04:17:36.852Z,8.10
2023-04-19T04:20:03.742Z,8.10
2023-04-19T04:22:30.731Z,8.20
2023-04-19T04:24:58.164Z,8.10
2023-04-19T04:27:24.932Z,8.10
2023-04-19T04:29:51.684Z,8.10
2023-04-19T04:32:23.230Z,8.10
2023-04-19T04:34:50.762Z,8.10
2023-04-19T04:37:17.984Z,8.20
2023-04-19T04:39:44.761Z,8.20
2023-04-19T04:42:12.240Z,8.20
2023-04-19T04:44:39.122Z,8.20
2023-04-19T04:47:05.926Z,8.20
2023-04-19T04:49:32.744Z,8.20
2023-04-19T04:51:59.559Z,8.30
2023-04-19T04:54:26.317Z,8.30
2023-04-19T04:56:53.101Z,8.30
2023-04-19T04:59:19.938Z,8.30
2023-04-19T05:01:46.913Z,8.30
2023-04-19T05:04:14.071Z,8.30
2023-04-19T05:06:41.223Z,8.20
2023-04-19T05:09:08.425Z,8.30
2023-04-19T05:11:35.167Z,8.20
2023-04-19T05:14:02.892Z,8.20
2023-04-19T05:16:30.009Z,8.30
2023-04-19T05:18:56.832Z,8.30
2023-04-19T05:21:23.594Z,8.30
2023-04-19T05:23:53.486Z,8.30
2023-04-19T05:26:20.652Z,8.30
2023-04-19T05:28:47.495Z,8.30
2023-04-19T05:31:14.318Z,8.30
2023-04-19T05:33:41.582Z,8.30
2023-04-19T05:36:08.593Z,8.30
2023-04-19T05:38:35.596Z,8.30
2023-04-19T05:41:04.125Z,8.40
2023-04-19T05:43:31.192Z,8.40
2023-04-19T05:45:58.320Z,8.40
2023-04-19T05:48:25.635Z,8.40
2023-04-19T05:50:57.414Z,8.50
2023-04-19T05:53:24.225Z,8.50
2023-04-19T05:55:52.143Z,8.50
2023-04-19T05:58:19.300Z,8.60
2023-04-19T06:00:46.499Z,8.60
2023-04-19T06:03:13.925Z,8.60
2023-04-19T06:05:41.132Z,8.60
2023-04-19T06:08:09.441Z,8.70
2023-04-19T06:10:51.911Z,8.70
2023-04-19T06:13:21.151Z,8.80
2023-04-19T06:15:48.390Z,8.80
2023-04-19T06:18:19.149Z,8.80
2023-04-19T06:20:47.119Z,8.80
2023-04-19T06:23:14.984Z,8.90
2023-04-19T06:25:42.110Z,8.90
2023-04-19T06:28:08.941Z,8.90
2023-04-19T06:30:35.720Z,9.00
2023-04-19T06:33:02.643Z,9.00
2023-04-19T06:35:29.438Z,9.00
2023-04-19T06:37:56.187Z,9.00
2023-04-19T06:40:23.136Z,9.00
2023-04-19T06:42:49.908Z,9.00
2023-04-19T06:45:16.889Z,9.00
2023-04-19T06:47:43.845Z,9.00
2023-04-19T06:50:11.232Z,9.00
2023-04-19T06:52:38.372Z,9.00
2023-04-19T06:55:06.969Z,9.00
2023-04-19T06:57:33.733Z,9.00
2023-04-19T07:00:00.628Z,8.90
2023-04-19T07:02:27.570Z,8.90
2023-04-19T07:04:54.414Z,8.90
2023-04-19T07:07:21.222Z,8.90
2023-04-19T07:09:48.101Z,8.90
2023-04-19T07:12:14.898Z,9.00
2023-04-19T07:14:41.658Z,9.00
2023-04-19T07:17:08.428Z,9.00
2023-04-19T07:19:36.218Z,9.00
2023-04-19T07:22:03.565Z,9.10
2023-04-19T07:24:30.433Z,9.10
2023-04-19T07:26:57.623Z,9.20
2023-04-19T07:29:24.383Z,9.20
2023-04-19T07:31:51.315Z,9.20
2023-04-19T07:34:18.385Z,9.20
2023-04-19T07:36:45.431Z,9.20
2023-04-19T07:39:13.284Z,9.30
2023-04-19T07:41:40.062Z,9.30
2023-04-19T07:44:06.907Z,9.30
2023-04-19T07:46:33.752Z,9.30
2023-04-19T07:49:00.584Z,9.40
2023-04-19T07:51:27.549Z,9.40
2023-04-19T07:53:54.470Z,9.50
2023-04-19T07:56:23.102Z,9.60
2023-04-19T07:59:04.513Z,9.70
2023-04-19T08:01:34.861Z,9.80
2023-04-19T08:04:01.975Z,9.90
2023-04-19T08:06:30.536Z,10.00
2023-04-19T08:08:57.351Z,10.10
2023-04-19T08:11:25.136Z,10.20
2023-04-19T08:14:04.396Z,10.40
2023-04-19T08:17:14.603Z,10.50
2023-04-19T08:19:20.283Z,10.70
2023-04-19T08:21:47.266Z,10.80
2023-04-19T08:24:14.335Z,11.00
2023-04-19T08:26:41.421Z,11.20
2023-04-19T08:29:08.410Z,11.40
2023-04-19T08:31:35.395Z,11.50
2023-04-19T08:34:02.822Z,11.60
2023-04-19T08:36:37.735Z,11.80
2023-04-19T08:39:12.313Z,11.90
2023-04-19T08:41:48.073Z,12.00
2023-04-19T08:44:32.558Z,12.20
2023-04-19T08:47:03.464Z,12.20
2023-04-19T08:49:31.325Z,12.20
2023-04-19T08:51:58.764Z,12.10
2023-04-19T08:54:26.315Z,12.00
2023-04-19T08:56:54.546Z,12.00
2023-04-19T08:59:21.491Z,12.10
2023-04-19T09:01:48.445Z,12.00
2023-04-19T09:04:34.917Z,12.00
2023-04-19T09:07:02.038Z,12.00
2023-04-19T09:12:00.517Z,12.00
2023-04-19T09:14:28.683Z,12.00
2023-04-19T09:17:17.096Z,11.90
2023-04-19T09:19:48.858Z,11.90
2023-04-19T09:22:15.986Z,11.90
2023-04-19T09:27:13.049Z,11.90
2023-04-19T09:29:40.689Z,12.00
2023-04-19T09:32:07.591Z,12.00
2023-04-19T09:34:34.512Z,11.90
2023-04-19T09:37:24.892Z,12.00
2023-04-19T09:39:59.762Z,12.00
2023-04-19T09:43:02.593Z,12.10
2023-04-19T09:46:04.049Z,12.40
2023-04-19T09:48:31.046Z,12.60
2023-04-19T09:51:04.616Z,12.90
2023-04-19T09:53:34.886Z,13.30
2023-04-19T09:56:23.042Z,13.80
2023-04-19T09:58:53.162Z,14.40
2023-04-19T10:41:17.779Z,16.80
2023-04-19T10:44:11.758Z,17.00
2023-04-19T10:46:42.075Z,17.30
2023-04-19T10:49:09.919Z,17.30
2023-04-19T10:51:39.155Z,17.00
2023-04-19T10:54:10.272Z,16.60
2023-04-19T10:56:38.023Z,16.10
2023-04-19T10:59:11.572Z,15.70
2023-04-19T11:01:43.257Z,15.30
2023-04-19T11:04:13.872Z,14.80
2023-04-19T11:06:52.886Z,14.20
2023-04-19T11:09:24.231Z,13.70
2023-04-19T11:11:57.339Z,13.30
2023-04-19T11:14:25.349Z,13.00
2023-04-19T11:16:52.125Z,12.70
2023-04-19T11:19:19.978Z,12.50
2023-04-19T11:21:47.681Z,12.30
2023-04-19T11:24:16.335Z,12.20
2023-04-19T11:26:44.156Z,12.10
2023-04-19T11:29:10.934Z,12.00
2023-04-19T11:31:38.042Z,11.90
2023-04-19T11:34:05.087Z,11.80
2023-04-19T11:36:32.543Z,11.70
2023-04-19T11:38:59.407Z,11.60
2023-04-19T11:41:26.203Z,11.50
2023-04-19T11:43:53.170Z,11.50
2023-04-19T11:46:19.913Z,11.40
2023-04-19T11:48:53.540Z,11.50
2023-04-19T11:51:20.719Z,11.50
2023-04-19T11:53:47.696Z,11.50
2023-04-19T11:56:15.404Z,11.50
2023-04-19T11:58:44.661Z,11.50
2023-04-19T12:01:13.207Z,11.50
2023-04-19T12:03:56.554Z,11.40
2023-04-19T12:06:25.697Z,11.20
2023-04-19T12:08:54.114Z,11.00
2023-04-19T12:11:24.302Z,10.80
2023-04-19T12:14:11.008Z,10.60
2023-04-19T12:16:38.534Z,10.50
2023-04-19T12:19:17.738Z,10.30
2023-04-19T12:21:45.655Z,10.30
2023-04-19T12:24:15.887Z,10.20
2023-04-19T12:26:56.961Z,10.10
2023-04-19T12:29:23.855Z,10.10
2023-04-19T12:31:51.118Z,10.00
2023-04-19T12:34:17.841Z,10.00
2023-04-19T12:36:44.561Z,10.00
2023-04-19T12:39:11.275Z,10.10
2023-04-19T12:41:37.973Z,10.10
2023-04-19T12:44:04.809Z,10.10
2023-04-19T12:46:31.664Z,10.10
2023-04-19T12:48:58.477Z,10.10
2023-04-19T12:51:25.260Z,10.10
2023-04-19T12:53:52.718Z,10.10
2023-04-19T12:56:19.589Z,10.10
2023-04-19T12:58:46.472Z,10.00
2023-04-19T13:01:13.217Z,10.00
2023-04-19T13:03:40.200Z,9.80
2023-04-19T13:06:07.100Z,9.80
2023-04-19T13:08:41.498Z,9.70
2023-04-19T13:11:11.246Z,9.60
2023-04-19T13:13:38.044Z,9.50
2023-04-19T13:16:06.154Z,9.40
2023-04-19T13:18:32.880Z,9.40
2023-04-19T13:20:59.610Z,9.40
2023-04-19T13:23:26.419Z,9.30
2023-04-19T13:25:53.079Z,9.30
2023-04-19T13:28:19.807Z,9.20
2023-04-19T13:30:46.550Z,9.20
2023-04-19T13:33:13.220Z,9.20
2023-04-19T13:35:39.967Z,9.20
2023-04-19T13:38:06.736Z,9.20
2023-04-19T13:40:33.556Z,9.20
2023-04-19T13:43:00.442Z,9.20
2023-04-19T13:45:27.175Z,9.20
2023-04-19T13:47:53.884Z,9.20
2023-04-19T13:50:21.018Z,9.30
2023-04-19T13:52:47.737Z,9.30
2023-04-19T13:55:14.465Z,9.20
2023-04-19T13:57:41.318Z,9.20
2023-04-19T14:00:08.719Z,9.20
2023-04-19T14:02:35.827Z,9.10
2023-04-19T14:05:02.653Z,9.00
2023-04-19T14:07:29.425Z,8.90
2023-04-19T14:09:56.169Z,8.80
2023-04-19T14:12:22.945Z,8.70
2023-04-19T14:14:49.671Z,8.70
2023-04-19T14:17:16.864Z,8.60
2023-04-19T14:19:43.590Z,8.50
2023-04-19T14:22:10.702Z,8.40
2023-04-19T14:24:37.478Z,8.40
2023-04-19T14:27:11.078Z,8.20
2023-04-19T14:29:38.830Z,8.00
2023-04-19T14:32:21.494Z,7.80
2023-04-19T14:34:52.687Z,7.60
2023-04-19T14:37:19.615Z,7.50
2023-04-19T14:39:46.684Z,7.40
2023-04-19T14:42:13.649Z,7.40
2023-04-19T14:44:40.938Z,7.30
2023-04-19T14:47:07.792Z,7.10
2023-04-19T14:49:34.928Z,7.00
2023-04-19T14:52:01.787Z,6.90
2023-04-19T14:54:29.008Z,6.80
2023-04-19T14:56:55.902Z,6.70
2023-04-19T14:59:22.625Z,6.70
2023-04-19T15:01:49.460Z,6.60
2023-04-19T15:04:16.613Z,6.60
2023-04-19T15:06:43.508Z,6.60
2023-04-19T15:09:10.401Z,6.60
2023-04-19T15:11:37.266Z,6.50
2023-04-19T15:14:03.978Z,6.40
2023-04-19T15:16:31.312Z,6.20
2023-04-19T15:18:58.180Z,6.10
2023-04-19T15:21:24.988Z,6.00
2023-04-19T15:23:51.994Z,6.00
2023-04-19T15:26:18.856Z,5.80
2023-04-19T15:28:45.717Z,5.80
2023-04-19T15:31:12.572Z,5.70
2023-04-19T15:33:39.576Z,5.60
2023-04-19T15:36:06.717Z,5.50
2023-04-19T15:38:33.534Z,5.50
2023-04-19T15:41:01.504Z,5.50
2023-04-19T15:43:28.550Z,5.40
2023-04-19T15:45:55.508Z,5.40
2023-04-19T15:48:22.454Z,5.40
2023-04-19T15:50:49.342Z,5.40
2023-04-19T15:53:16.337Z,5.50
2023-04-19T15:55:43.239Z,5.50
2023-04-19T15:58:09.922Z,5.50
2023-04-19T16:00:36.770Z,5.60
2023-04-19T16:03:04.103Z,5.50
2023-04-19T16:05:31.026Z,5.50
2023-04-19T16:08:02.651Z,5.50
2023-04-19T16:10:29.699Z,5.50
2023-04-19T16:12:56.740Z,5.40
2023-04-19T16:15:23.543Z,5.30
2023-04-19T16:17:50.888Z,5.30
2023-04-19T16:20:17.798Z,5.20
2023-04-19T16:22:44.798Z,5.20
2023-04-19T16:25:12.780Z,5.20
2023-04-19T16:27:44.256Z,5.20
2023-04-19T16:30:12.405Z,5.20
2023-04-19T16:32:39.713Z,5.20
2023-04-19T16:35:07.204Z,5.20
2023-04-19T16:37:34.318Z,5.20
2023-04-19T16:40:08.070Z,5.20
2023-04-19T16:42:35.858Z,5.20
2023-04-19T16:45:03.111Z,5.10
2023-04-19T16:47:32.613Z,5.00
2023-04-19T16:50:01.083Z,5.00
2023-04-19T16:52:29.780Z,4.80
2023-04-19T16:54:56.541Z,4.80
2023-04-19T16:57:23.850Z,4.70
2023-04-19T16:59:50.666Z,4.70
2023-04-19T17:02:17.584Z,4.70
2023-04-19T17:04:44.665Z,4.60
2023-04-19T17:07:12.192Z,4.60
2023-04-19T17:09:39.258Z,4.50
2023-04-19T17:12:06.490Z,4.50
2023-04-19T17:14:35.019Z,4.50
2023-04-19T17:17:01.837Z,4.50
2023-04-19T17:19:28.649Z,4.50
2023-04-19T17:21:59.756Z,4.60
2023-04-19T17:24:26.514Z,4.60
2023-04-19T17:26:53.266Z,4.60
2023-04-19T17:29:20.001Z,4.60
2023-04-19T17:31:46.934Z,4.60
2023-04-19T17:34:13.701Z,4.60
2023-04-19T17:36:42.069Z,4.60
2023-04-19T17:39:09.254Z,4.70
2023-04-19T17:41:36.023Z,4.60
2023-04-19T17:44:02.751Z,4.60
2023-04-19T17:46:29.535Z,4.60
2023-04-19T17:48:56.378Z,4.60
2023-04-19T17:51:23.138Z,4.60
2023-04-19T17:53:49.813Z,4.50
2023-04-19T17:56:16.524Z,4.50
2023-04-19T17:58:43.328Z,4.50
2023-04-19T18:01:10.541Z,4.50
2023-04-19T18:03:38.084Z,4.50
2023-04-19T18:06:05.132Z,4.50
2023-04-19T18:08:31.910Z,4.50
2023-04-19T18:10:58.633Z,4.50
2023-04-19T18:13:25.377Z,4.60
2023-04-19T18:15:52.106Z,4.60
2023-04-19T18:18:18.945Z,4.60
2023-04-19T18:20:45.696Z,4.70
2023-04-19T18:23:12.436Z,4.70
2023-04-19T18:25:39.675Z,4.70
2023-04-19T18:28:06.668Z,4.70
2023-04-19T18:30:33.819Z,4.60
2023-04-19T18:33:00.639Z,4.60
2023-04-19T18:35:27.527Z,4.60
2023-04-19T18:37:54.251Z,4.60
2023-04-19T18:40:21.147Z,4.60
2023-04-19T18:42:47.948Z,4.70
2023-04-19T18:45:14.871Z,4.70
2023-04-19T18:47:42.074Z,4.70
2023-04-19T18:50:09.569Z,4.70
2023-04-19T18:52:37.715Z,4.70
2023-04-19T18:55:06.147Z,4.70
2023-04-19T18:57:34.942Z,4.70
2023-04-19T19:00:04.836Z,4.80
2023-04-19T19:02:34.014Z,4.80
2023-04-19T19:05:02.275Z,4.80
2023-04-19T19:10:02.529Z,4.90
2023-04-19T19:12:32.501Z,4.90
2023-04-19T19:14:59.280Z,4.90
2023-04-19T19:17:28.176Z,4.80
2023-04-19T19:19:55.163Z,4.80
2023-04-19T19:22:28.162Z,4.80
2023-04-19T19:24:55.843Z,4.80
2023-04-19T19:27:22.865Z,4.80
2023-04-19T19:29:49.552Z,4.80
2023-04-19T19:32:16.494Z,4.80
2023-04-19T19:34:54.908Z,4.90
2023-04-19T19:37:22.986Z,4.90
2023-04-19T19:39:49.955Z,4.90
2023-04-19T19:42:18.158Z,4.90
2023-04-19T19:44:45.041Z,4.90
2023-04-19T19:47:13.043Z,5.00
2023-04-19T19:50:02.011Z,4.90
2023-04-19T19:52:27.893Z,4.90
2023-04-19T19:54:54.625Z,4.90
2023-04-19T19:58:10.405Z,5.00
2023-04-19T20:00:36.913Z,5.00
2023-04-19T20:02:59.399Z,5.00
2023-04-19T20:05:26.896Z,5.00
2023-04-19T20:08:09.711Z,5.00
2023-04-19T20:10:37.969Z,5.00
2023-04-19T20:13:08.117Z,5.00
2023-04-19T20:15:36.552Z,5.00
2023-04-19T20:18:04.376Z,5.00
2023-04-19T20:20:31.167Z,5.00
2023-04-19T20:22:57.896Z,5.00
2023-04-19T20:25:24.770Z,5.00
2023-04-19T20:27:51.660Z,5.00
2023-04-19T20:30:18.454Z,5.00
2023-04-19T20:32:45.369Z,5.00
2023-04-19T20:35:12.542Z,5.00
2023-04-19T20:37:40.134Z,4.90
2023-04-19T20:40:11.048Z,4.90
2023-04-19T20:42:38.199Z,4.90
2023-04-19T20:45:06.836Z,4.90
2023-04-19T20:47:33.763Z,4.90
2023-04-19T20:50:00.738Z,4.90
2023-04-19T20:52:27.477Z,4.90
2023-04-19T20:54:56.156Z,4.90
2023-04-19T20:57:23.082Z,4.90
2023-04-19T20:59:50.938Z,4.90
2023-04-19T21:02:17.946Z,5.00
2023-04-19T21:04:44.716Z,4.90
2023-04-19T21:07:11.446Z,4.90
2023-04-19T21:09:38.242Z,4.90
2023-04-19T21:12:05.061Z,4.90
2023-04-19T21:14:33.587Z,4.90
2023-04-19T21:17:01.378Z,4.90
2023-04-19T21:19:28.209Z,4.90
2023-04-19T21:21:54.993Z,5.00
2023-04-19T21:24:21.796Z,4.90
2023-04-19T21:26:48.552Z,4.90
2023-04-19T21:29:15.794Z,4.90
2023-04-19T21:31:42.896Z,4.90
2023-04-19T21:34:09.658Z,4.90
2023-04-19T21:36:36.395Z,4.90
2023-04-19T21:39:03.990Z,4.80
2023-04-19T21:41:30.769Z,4.90
2023-04-19T21:43:57.528Z,4.90
2023-04-19T21:46:24.278Z,4.90
2023-04-19T21:48:52.420Z,4.90
2023-04-19T21:51:20.337Z,4.90
2023-04-19T21:53:47.072Z,4.90
2023-04-19T21:56:13.770Z,4.90
2023-04-19T21:58:40.886Z,4.90
2023-04-19T22:01:07.775Z,4.80
2023-04-19T22:03:34.718Z,4.80
2023-04-19T22:06:02.175Z,4.80
2023-04-19T22:08:30.407Z,4.80
2023-04-19T22:11:00.298Z,4.80
2023-04-19T22:13:28.318Z,4.80
2023-04-19T22:15:57.044Z,4.80
2023-04-19T22:18:24.126Z,4.80
2023-04-19T22:20:52.121Z,4.80
2023-04-19T22:23:19.158Z,4.80
2023-04-19T22:25:46.087Z,4.80
2023-04-19T22:28:13.040Z,4.80
2023-04-19T22:30:39.870Z,4.80
2023-04-19T22:33:06.905Z,4.90
2023-04-19T22:35:33.704Z,4.80
2023-04-19T22:38:00.434Z,4.90
2023-04-19T22:40:27.211Z,4.80
2023-04-19T22:42:53.930Z,4.90
2023-04-19T22:45:20.653Z,4.90
2023-04-19T22:47:47.385Z,4.80
2023-04-19T22:50:14.263Z,4.90
2023-04-19T22:52:41.500Z,4.90
2023-04-19T22:55:08.780Z,4.90
2023-04-19T22:57:35.553Z,4.90
2023-04-19T23:00:04.297Z,4.90
2023-04-19T23:02:31.514Z,5.00
2023-04-19T23:04:58.835Z,5.00
2023-04-19T23:07:26.035Z,5.00
2023-04-19T23:09:54.828Z,5.00
2023-04-19T23:12:22.849Z,5.00
2023-04-19T23:14:50.594Z,5.10
2023-04-19T23:17:18.166Z,5.00
2023-04-19T23:19:45.004Z,5.10
2023-04-19T23:22:11.776Z,5.10
2023-04-19T23:24:38.554Z,5.10
2023-04-19T23:27:05.327Z,5.10
2023-04-19T23:29:32.055Z,5.10
2023-04-19T23:31:58.818Z,5.10
2023-04-19T23:34:25.602Z,5.10
2023-04-19T23:36:52.344Z,5.10
2023-04-19T23:39:19.579Z,5.10
2023-04-19T23:41:46.674Z,5.10
2023-04-19T23:44:13.454Z,5.10
2023-04-19T23:46:40.674Z,5.10
2023-04-19T23:49:08.679Z,5.10
2023-04-19T23:51:36.340Z,5.10
2023-04-19T23:54:03.223Z,5.10
2023-04-19T23:56:29.977Z,5.10
2023-04-19T23:58:57.384Z,5.10
